createdAt,value
2023-07-18T00:05:00.347Z,24.8
2023-07-18T00:10:02.596Z,24.8
2023-07-18T00:15:04.865Z,24.8
2023-07-18T00:20:07.048Z,24.8
2023-07-18T00:25:09.207Z,24.8
2023-07-18T00:30:11.388Z,24.8
2023-07-18T00:35:13.690Z,24.7
2023-07-18T00:40:15.807Z,24.7
2023-07-18T00:45:17.938Z,24.8
2023-07-18T00:50:20.114Z,24.8
2023-07-18T00:55:23.361Z,24.8
2023-07-18T01:00:25.513Z,24.8
2023-07-18T05:40:55.726Z,24.5
2023-07-18T05:45:57.939Z,24.5
2023-07-18T05:51:00.257Z,24.5
2023-07-18T05:56:02.462Z,24.4
2023-07-18T06:01:04.654Z,24.4
2023-07-18T06:06:06.863Z,24.3
2023-07-18T06:11:09.173Z,24.1
2023-07-18T06:16:11.369Z,24
2023-07-18T06:21:13.509Z,23.9
2023-07-18T06:26:15.747Z,23.8
2023-07-18T06:36:20.332Z,23.7
2023-07-18T06:41:22.663Z,23.7
2023-07-18T06:46:24.837Z,23.6
2023-07-18T06:51:27.199Z,23.6
2023-07-18T06:56:29.429Z,23.6
2023-07-18T07:01:31.607Z,23.6
2023-07-18T07:06:33.938Z,23.6
2023-07-18T07:11:36.131Z,23.6
2023-07-18T07:16:38.339Z,23.6
2023-07-18T07:21:40.616Z,23.6
2023-07-18T07:31:44.929Z,23.6
2023-07-18T07:36:47.174Z,23.6
2023-07-18T07:46:51.558Z,23.6
2023-07-18T07:51:54.007Z,23.6
2023-07-18T08:01:58.032Z,23.6
2023-07-18T08:07:00.456Z,23.6
2023-07-18T08:12:02.587Z,23.6
2023-07-18T08:17:04.809Z,23.6
2023-07-18T08:22:07.081Z,23.6
2023-07-18T08:27:09.244Z,23.6
2023-07-18T08:32:11.503Z,23.6
2023-07-18T08:37:13.681Z,23.6
2023-07-18T08:42:15.890Z,23.6
2023-07-18T08:47:18.040Z,23.6
2023-07-18T08:52:20.214Z,23.6
2023-07-18T08:57:22.371Z,23.6
2023-07-18T09:02:24.544Z,23.7
2023-07-18T09:07:26.873Z,23.7
2023-07-18T09:12:29.111Z,23.6
2023-07-18T09:17:31.262Z,23.6
2023-07-18T09:22:33.518Z,23.6
2023-07-18T09:27:35.640Z,23.7
2023-07-18T09:32:37.806Z,23.6
2023-07-18T09:37:40.234Z,23.7
2023-07-18T09:42:45.183Z,23.7
2023-07-18T09:47:44.641Z,23.6
2023-07-18T09:52:46.960Z,23.6
2023-07-18T09:57:49.133Z,23.6
2023-07-18T10:02:51.563Z,23.6
2023-07-18T10:07:53.839Z,23.6
2023-07-18T10:12:55.972Z,23.6
2023-07-18T10:23:00.670Z,23.6
2023-07-18T10:28:02.596Z,23.6
2023-07-18T10:33:04.767Z,23.6
2023-07-18T10:38:06.986Z,23.6
2023-07-18T10:43:09.278Z,23.6
2023-07-18T10:48:11.470Z,23.6
2023-07-18T10:53:13.611Z,23.6
2023-07-18T10:58:15.755Z,23.6
2023-07-18T11:03:17.894Z,23.6
2023-07-18T11:08:20.318Z,23.6
2023-07-18T11:13:22.365Z,23.6
2023-07-18T11:18:24.557Z,23.6
2023-07-18T11:23:26.894Z,23.7
2023-07-18T11:28:29.038Z,23.7
2023-07-18T11:33:31.194Z,23.7
2023-07-18T11:38:33.567Z,23.7
2023-07-18T11:48:38.090Z,23.7
2023-07-18T11:53:40.226Z,23.8
2023-07-18T11:58:42.347Z,23.8
2023-07-18T12:03:44.700Z,23.8
2023-07-18T12:08:46.836Z,23.8
2023-07-18T12:13:48.873Z,23.8
2023-07-18T12:18:51.018Z,23.8
2023-07-18T12:23:53.222Z,23.9
2023-07-18T12:28:55.511Z,24
2023-07-18T12:33:57.584Z,24
2023-07-18T12:38:59.747Z,24.1
2023-07-18T12:44:01.856Z,24.1
2023-07-18T12:49:04.654Z,24.1
2023-07-18T12:54:06.369Z,24.1
2023-07-18T12:59:08.596Z,24.1
2023-07-18T13:04:10.863Z,24.2
2023-07-18T13:14:15.090Z,24.3
2023-07-18T13:19:17.239Z,24.3
2023-07-18T13:24:19.508Z,24.4
2023-07-18T13:29:21.679Z,24.5
2023-07-18T13:34:23.948Z,24.6
2023-07-18T13:39:26.332Z,24.6
2023-07-18T13:54:32.856Z,24.9
2023-07-18T13:59:35.049Z,24.9
2023-07-18T14:04:37.396Z,24.9
2023-07-18T14:09:39.598Z,25
2023-07-18T14:14:41.681Z,25.1
2023-07-18T14:19:43.820Z,25.2
2023-07-18T14:24:45.988Z,25.3
2023-07-18T14:29:48.205Z,25.3
2023-07-18T14:34:50.355Z,25.4
2023-07-18T14:44:54.641Z,25.5
2023-07-18T14:49:56.791Z,25.5
2023-07-18T14:54:58.998Z,25.6
2023-07-18T15:00:01.222Z,25.7
2023-07-18T15:05:03.418Z,25.7
2023-07-18T15:10:05.634Z,25.8
2023-07-18T15:15:07.709Z,25.9
2023-07-18T15:20:09.933Z,26
2023-07-18T15:25:12.175Z,26.1
2023-07-18T15:30:14.288Z,26.1
2023-07-18T15:35:16.658Z,26.1
2023-07-18T15:45:20.966Z,26.1
2023-07-18T15:50:23.333Z,26.1
2023-07-18T15:55:25.613Z,26.1
2023-07-18T16:00:27.715Z,26.2
2023-07-18T16:05:29.947Z,26.2
2023-07-18T16:10:32.256Z,26.2
2023-07-18T16:15:34.282Z,26.3
2023-07-18T16:20:36.416Z,26.3
2023-07-18T16:25:38.573Z,26.3
2023-07-18T16:30:40.767Z,26.4
2023-07-18T16:45:47.538Z,26.5
2023-07-18T16:50:49.861Z,26.5
2023-07-18T16:55:52.142Z,26.5
2023-07-18T17:00:54.314Z,26.6
2023-07-18T17:05:56.642Z,26.7
2023-07-18T17:10:58.963Z,26.8
2023-07-18T17:16:01.159Z,26.8
2023-07-18T17:21:03.415Z,26.8
2023-07-18T17:26:05.625Z,26.9
2023-07-18T17:31:07.731Z,26.9
2023-07-18T17:41:12.158Z,26.9
2023-07-18T17:46:14.378Z,26.9
2023-07-18T17:51:16.726Z,27
2023-07-18T17:56:18.888Z,27
2023-07-18T18:01:21.376Z,27
2023-07-18T18:06:23.285Z,27
2023-07-18T18:11:25.462Z,27
2023-07-18T18:16:27.692Z,27
2023-07-18T18:21:29.812Z,27
2023-07-18T18:26:31.973Z,27
2023-07-18T18:36:36.220Z,26.9
2023-07-18T18:41:38.393Z,26.9
2023-07-18T18:46:40.590Z,26.9
2023-07-18T18:51:42.690Z,26.9
2023-07-18T18:56:45.197Z,26.8
2023-07-18T19:01:47.334Z,26.8
2023-07-18T19:06:49.479Z,26.8
2023-07-18T19:11:51.774Z,26.8
2023-07-18T19:16:53.921Z,26.8
2023-07-18T19:21:56.198Z,26.7
2023-07-18T19:26:58.419Z,26.7
2023-07-18T19:32:00.535Z,26.7
2023-07-18T19:37:02.809Z,26.7
2023-07-18T19:42:05.081Z,26.7
2023-07-18T19:47:07.196Z,26.6
2023-07-18T19:52:09.316Z,26.6
2023-07-18T19:57:11.681Z,26.5
2023-07-18T20:02:13.880Z,26.5
2023-07-18T20:07:15.988Z,26.5
2023-07-18T20:12:18.325Z,26.5
2023-07-18T20:17:20.456Z,26.5
2023-07-18T20:22:22.611Z,26.4
2023-07-18T20:27:24.889Z,26.4
2023-07-18T20:32:27.058Z,26.4
2023-07-18T20:37:29.195Z,26.4
2023-07-18T20:42:31.386Z,26.4
2023-07-18T20:47:33.552Z,26.3
2023-07-18T20:52:35.620Z,26.2
2023-07-18T20:57:37.931Z,26.1
2023-07-18T21:02:40.210Z,25.9
2023-07-18T21:07:42.354Z,25.9
2023-07-18T21:12:44.609Z,25.8
2023-07-18T21:17:46.785Z,25.8
2023-07-18T21:27:51.250Z,25.8
2023-07-18T21:32:53.633Z,25.8
2023-07-18T21:37:55.567Z,25.8
2023-07-18T21:42:57.804Z,25.7
2023-07-18T21:47:59.938Z,25.7
2023-07-18T21:53:02.093Z,25.7
2023-07-18T21:58:04.264Z,25.7
2023-07-18T22:03:06.435Z,25.7
2023-07-18T22:08:08.698Z,25.6
2023-07-18T22:13:10.959Z,25.6
2023-07-18T22:18:26.146Z,25.6
2023-07-18T22:23:15.395Z,25.6
2023-07-18T22:28:17.628Z,25.5
2023-07-18T22:33:19.705Z,25.5
2023-07-18T22:38:21.958Z,25.5
2023-07-18T22:43:24.148Z,25.5
2023-07-18T22:48:26.356Z,25.5
2023-07-18T22:53:28.512Z,25.5
2023-07-18T22:58:30.878Z,25.5
2023-07-18T23:03:33.101Z,25.5
2023-07-18T23:08:35.142Z,25.5
2023-07-18T23:13:37.333Z,25.4
2023-07-18T23:18:39.513Z,25.4
2023-07-18T23:23:41.686Z,25.4
2023-07-18T23:28:43.851Z,25.4
2023-07-18T23:33:46.126Z,25.4
2023-07-18T23:38:48.290Z,25.3
2023-07-18T23:48:52.595Z,25.3
2023-07-18T23:53:54.920Z,25.3
2023-07-18T23:58:57.086Z,25.3
